Time;durP1;ratioP1;P1;durP2;ratioP2;P2;SDS_P1;SDS_P2;PMS_P1;PMS_P2;Temp;Humidity;BMP_temperature;BMP_pressure;BME280_temperature;BME280_humidity;BME280_pressure;Samples;Min_cycle;Max_cycle;Signal;HPM_P1;HPM_P2
2021/12/07 00:01:17;;;;;;;5.90;3.53;;;;;;;;;;4992290;28;20117;-84
2021/12/07 00:03:42;;;;;;;4.43;3.30;;;;;;;;;;5000482;28;20153;-85
2021/12/07 00:06:08;;;;;;;4.80;3.20;;;;;;;;;;5000272;28;20444;-83
2021/12/07 00:08:35;;;;;;;4.68;3.05;;;;;;;;;;4998222;28;20037;-81
2021/12/07 00:11:01;;;;;;;4.15;2.90;;;;;;;;;;5001712;28;20023;-86
2021/12/07 00:13:29;;;;;;;5.68;3.13;;;;;;;;;;5000717;28;20059;-84
2021/12/07 00:15:55;;;;;;;5.93;2.50;;;;;;;;;;5002638;28;20026;-85
2021/12/07 00:18:21;;;;;;;5.57;3.30;;;;;;;;;;5002411;28;20028;-85
2021/12/07 00:20:46;;;;;;;4.53;2.85;;;;;;;;;;4998803;28;20551;-83
2021/12/07 00:23:12;;;;;;;5.10;2.00;;;;;;;;;;5001206;28;20031;-82
2021/12/07 00:25:37;;;;;;;3.95;3.03;;;;;;;;;;5003784;28;20026;-84
2021/12/07 00:28:04;;;;;;;4.88;3.05;;;;;;;;;;5001788;28;20046;-83
2021/12/07 00:30:32;;;;;;;3.67;3.20;;;;;;;;;;5006389;28;20054;-82
2021/12/07 00:35:55;;;;;;;5.60;3.30;;;;;;;;;;5006082;28;20242;-84
2021/12/07 00:38:24;;;;;;;4.65;3.00;;;;;;;;;;5005720;28;20027;-84
2021/12/07 00:40:51;;;;;;;4.78;2.80;;;;;;;;;;5004050;28;20018;-82
2021/12/07 00:43:17;;;;;;;2.33;2.08;;;;;;;;;;5004937;28;20014;-86
2021/12/07 00:45:45;;;;;;;4.85;3.20;;;;;;;;;;5002742;28;20023;-82
2021/12/07 00:48:13;;;;;;;3.95;2.67;;;;;;;;;;5001993;28;20034;-84
2021/12/07 00:50:40;;;;;;;4.63;3.15;;;;;;;;;;5002910;28;20030;-84
2021/12/07 00:53:06;;;;;;;3.97;3.03;;;;;;;;;;5000008;28;20029;-85
2021/12/07 00:55:35;;;;;;;4.93;3.38;;;;;;;;;;4998087;28;20105;-85
2021/12/07 00:58:06;;;;;;;4.85;3.40;;;;;;;;;;5000372;28;20033;-83
2021/12/07 01:00:31;;;;;;;4.25;2.78;;;;;;;;;;4998010;28;20056;-82
2021/12/07 01:02:57;;;;;;;4.97;3.67;;;;;;;;;;4998701;28;20396;-85
2021/12/07 01:05:29;;;;;;;7.20;3.38;;;;;;;;;;5011261;28;20054;-82
2021/12/07 01:24:56;;;;;;;4.38;2.88;;;;;;;;;;4997247;28;20036;-84
2021/12/07 01:27:22;;;;;;;4.78;3.22;;;;;;;;;;4990186;28;20058;-87
2021/12/07 01:29:59;;;;;;;5.75;3.42;;;;;;;;;;5002598;28;20038;-84
2021/12/07 01:32:48;;;;;;;5.22;3.15;;;;;;;;;;4988174;28;20042;-86
2021/12/07 01:44:20;;;;;;;3.72;2.58;;;;;;;;;;4982253;28;20055;-87
2021/12/07 01:47:41;;;;;;;4.30;2.60;;;;;;;;;;4979452;28;20035;-86
2021/12/07 01:59:57;;;;;;;3.22;2.30;;;;;;;;;;4975238;28;20505;-89
2021/12/07 02:02:27;;;;;;;3.60;2.58;;;;;;;;;;4990575;28;20039;-89
2021/12/07 02:04:52;;;;;;;4.05;2.90;;;;;;;;;;4985238;28;20023;-89
2021/12/07 02:07:18;;;;;;;4.53;2.90;;;;;;;;;;4983228;28;20544;-88
2021/12/07 02:09:48;;;;;;;4.07;2.55;;;;;;;;;;4985691;28;20033;-86
2021/12/07 02:12:14;;;;;;;5.75;3.03;;;;;;;;;;4990767;28;20107;-87
2021/12/07 02:14:41;;;;;;;3.63;2.70;;;;;;;;;;4983068;28;20476;-87
2021/12/07 02:17:10;;;;;;;2.45;2.25;;;;;;;;;;4984692;28;20053;-86
2021/12/07 02:19:36;;;;;;;3.60;2.47;;;;;;;;;;4997200;28;20023;-87
2021/12/07 02:22:02;;;;;;;4.55;3.00;;;;;;;;;;4979674;28;20437;-87
2021/12/07 02:24:29;;;;;;;4.68;3.00;;;;;;;;;;4979480;28;20035;-86
2021/12/07 02:26:55;;;;;;;3.40;2.80;;;;;;;;;;4979889;28;20058;-86
2021/12/07 02:29:21;;;;;;;3.55;2.67;;;;;;;;;;4980713;28;20470;-88
2021/12/07 02:31:48;;;;;;;4.25;2.97;;;;;;;;;;4981168;28;20113;-87
2021/12/07 02:34:14;;;;;;;3.42;2.33;;;;;;;;;;4991891;28;20022;-87
2021/12/07 02:36:53;;;;;;;5.82;2.80;;;;;;;;;;4995322;28;20026;-87
2021/12/07 02:39:28;;;;;;;4.88;2.83;;;;;;;;;;4978355;28;20027;-88
2021/12/07 02:41:53;;;;;;;3.05;2.55;;;;;;;;;;4982012;28;20429;-87
2021/12/07 02:44:19;;;;;;;3.50;2.65;;;;;;;;;;4983105;28;20474;-88
2021/12/07 02:46:45;;;;;;;5.60;2.85;;;;;;;;;;4984422;28;20573;-87
2021/12/07 02:49:10;;;;;;;4.72;3.08;;;;;;;;;;4984148;28;20026;-87
2021/12/07 02:51:35;;;;;;;4.53;2.95;;;;;;;;;;4989625;28;20027;-87
2021/12/07 02:54:02;;;;;;;3.70;2.70;;;;;;;;;;4982763;28;20055;-86
2021/12/07 02:56:28;;;;;;;4.32;2.60;;;;;;;;;;4982677;28;20122;-87
2021/12/07 02:59:01;;;;;;;3.75;2.55;;;;;;;;;;4982464;28;20027;-88
2021/12/07 03:01:41;;;;;;;2.67;2.15;;;;;;;;;;4984258;28;20094;-87
2021/12/07 03:04:14;;;;;;;4.10;2.35;;;;;;;;;;4983446;28;20130;-86
2021/12/07 03:07:05;;;;;;;4.15;2.40;;;;;;;;;;4983764;28;20111;-86
2021/12/07 03:28:17;;;;;;;3.85;2.22;;;;;;;;;;4989357;28;20098;-86
2021/12/07 03:30:43;;;;;;;3.08;2.25;;;;;;;;;;4988654;28;20039;-86
2021/12/07 03:33:08;;;;;;;3.67;2.13;;;;;;;;;;4988198;28;20031;-84
2021/12/07 03:35:34;;;;;;;2.92;2.25;;;;;;;;;;4997815;28;20039;-85
2021/12/07 03:38:00;;;;;;;6.60;2.20;;;;;;;;;;4997269;28;20031;-85
2021/12/07 03:40:26;;;;;;;3.08;2.22;;;;;;;;;;5004405;28;20033;-86
2021/12/07 03:42:51;;;;;;;3.03;2.03;;;;;;;;;;5004081;28;20030;-86
2021/12/07 03:45:17;;;;;;;2.58;1.90;;;;;;;;;;4997937;28;20030;-84
2021/12/07 03:47:42;;;;;;;4.18;2.42;;;;;;;;;;4998665;28;20030;-84
2021/12/07 03:50:10;;;;;;;3.70;2.13;;;;;;;;;;4997831;28;20014;-84
2021/12/07 03:52:36;;;;;;;3.28;1.88;;;;;;;;;;4998513;28;20027;-85
2021/12/07 03:55:08;;;;;;;2.17;1.98;;;;;;;;;;4996622;28;20042;-85
2021/12/07 03:57:34;;;;;;;2.25;2.05;;;;;;;;;;4998244;28;20027;-84
2021/12/07 04:00:00;;;;;;;2.30;2.10;;;;;;;;;;5001287;28;20061;-85
2021/12/07 04:02:26;;;;;;;2.58;2.35;;;;;;;;;;4997439;28;20026;-87
2021/12/07 04:04:58;;;;;;;4.80;1.90;;;;;;;;;;4991006;28;20034;-86
2021/12/07 04:07:24;;;;;;;3.10;1.88;;;;;;;;;;4958915;28;20043;-86
2021/12/07 04:09:49;;;;;;;3.17;2.42;;;;;;;;;;4959016;28;20031;-87
2021/12/07 04:12:15;;;;;;;3.45;2.40;;;;;;;;;;4958638;28;20031;-87
2021/12/07 04:14:40;;;;;;;4.03;1.50;;;;;;;;;;4989995;28;20434;-85
2021/12/07 04:17:06;;;;;;;4.90;1.75;;;;;;;;;;4997787;28;20385;-86
2021/12/07 04:19:31;;;;;;;1.40;1.30;;;;;;;;;;4983635;28;20023;-85
2021/12/07 04:21:57;;;;;;;3.17;1.67;;;;;;;;;;4978298;28;20027;-87
2021/12/07 04:24:27;;;;;;;4.50;1.38;;;;;;;;;;4978025;28;20027;-85
2021/12/07 04:26:53;;;;;;;10.07;1.73;;;;;;;;;;4986240;28;20105;-84
2021/12/07 04:29:18;;;;;;;1.45;1.35;;;;;;;;;;4984214;28;20033;-85
2021/12/07 04:31:44;;;;;;;4.65;1.40;;;;;;;;;;4984152;28;20031;-86
2021/12/07 04:34:21;;;;;;;2.20;1.52;;;;;;;;;;4979194;28;20031;-87
2021/12/07 04:36:46;;;;;;;4.15;1.67;;;;;;;;;;4974715;28;20031;-86
2021/12/07 04:39:13;;;;;;;1.70;1.20;;;;;;;;;;4971498;28;20034;-87
2021/12/07 04:41:41;;;;;;;6.72;1.52;;;;;;;;;;4978674;28;20053;-86
2021/12/07 04:44:06;;;;;;;5.15;1.52;;;;;;;;;;4977907;28;20624;-87
2021/12/07 04:47:07;;;;;;;3.35;1.40;;;;;;;;;;4978744;28;20168;-85
2021/12/07 04:50:16;;;;;;;;;;;;;;;;;;;;;
2021/12/07 04:58:10;;;;;;;4.97;1.30;;;;;;;;;;4975986;28;20033;-89
2021/12/07 05:00:36;;;;;;;2.65;1.20;;;;;;;;;;4961927;28;20118;-87
2021/12/07 05:03:07;;;;;;;2.40;1.42;;;;;;;;;;4980372;28;20109;-87
2021/12/07 05:08:46;;;;;;;2.85;1.40;;;;;;;;;;5066250;23;20519;-88
2021/12/07 05:11:23;;;;;;;3.72;1.50;;;;;;;;;;5031006;28;20025;-86
2021/12/07 05:40:23;;;;;;;3.88;2.28;;;;;;;;;;5009042;28;20033;-86
2021/12/07 05:42:49;;;;;;;2.63;1.88;;;;;;;;;;5028452;28;20481;-85
2021/12/07 05:45:34;;;;;;;4.40;1.98;;;;;;;;;;5020218;28;20021;-86
2021/12/07 05:48:01;;;;;;;6.85;1.85;;;;;;;;;;5026264;28;20063;-88
2021/12/07 05:50:28;;;;;;;5.20;1.95;;;;;;;;;;5022870;28;20029;-87
2021/12/07 05:52:54;;;;;;;8.00;1.85;;;;;;;;;;5029761;28;20033;-87
2021/12/07 05:55:19;;;;;;;6.72;2.15;;;;;;;;;;5026326;28;20018;-88
2021/12/07 05:57:45;;;;;;;3.47;1.75;;;;;;;;;;5028094;28;20039;-87
2021/12/07 06:00:25;;;;;;;7.68;1.80;;;;;;;;;;5025195;28;20120;-88
2021/12/07 06:02:52;;;;;;;4.60;1.85;;;;;;;;;;5020832;28;20021;-87
2021/12/07 06:05:17;;;;;;;4.53;1.92;;;;;;;;;;5026908;28;20050;-87
2021/12/07 06:07:43;;;;;;;5.35;1.98;;;;;;;;;;5011866;28;20064;-87
2021/12/07 06:10:09;;;;;;;4.97;1.98;;;;;;;;;;5015701;28;20022;-87
2021/12/07 06:12:34;;;;;;;3.85;1.90;;;;;;;;;;5027879;28;20029;-87
2021/12/07 06:15:00;;;;;;;7.82;2.45;;;;;;;;;;5014872;28;20018;-87
2021/12/07 06:17:25;;;;;;;4.00;1.80;;;;;;;;;;5013624;28;20372;-88
2021/12/07 06:19:51;;;;;;;3.90;1.63;;;;;;;;;;5012942;28;20037;-87
2021/12/07 06:22:17;;;;;;;3.90;1.98;;;;;;;;;;5018132;28;20095;-87
2021/12/07 06:24:42;;;;;;;6.60;1.92;;;;;;;;;;5015557;28;20026;-87
2021/12/07 06:27:08;;;;;;;4.97;1.88;;;;;;;;;;5014863;28;20030;-87
2021/12/07 06:29:33;;;;;;;5.35;2.72;;;;;;;;;;5031992;28;20033;-87
2021/12/07 06:31:59;;;;;;;4.75;1.70;;;;;;;;;;5012502;28;20076;-87
2021/12/07 06:34:24;;;;;;;5.50;2.05;;;;;;;;;;5011132;28;20109;-86
2021/12/07 06:36:50;;;;;;;7.35;2.17;;;;;;;;;;5018990;28;20024;-86
2021/12/07 06:39:15;;;;;;;9.73;1.80;;;;;;;;;;5017647;28;20080;-87
2021/12/07 06:41:41;;;;;;;9.80;2.05;;;;;;;;;;5013030;28;20479;-88
2021/12/07 06:44:06;;;;;;;8.02;2.08;;;;;;;;;;5011523;28;20022;-87
2021/12/07 06:46:32;;;;;;;6.07;1.85;;;;;;;;;;5012854;28;20139;-86
2021/12/07 06:48:57;;;;;;;6.57;1.88;;;;;;;;;;5014626;28;20026;-86
2021/12/07 06:51:23;;;;;;;7.25;2.08;;;;;;;;;;5015966;28;20498;-86
2021/12/07 06:53:48;;;;;;;3.85;1.55;;;;;;;;;;5017417;28;20463;-86
2021/12/07 06:56:14;;;;;;;6.65;1.85;;;;;;;;;;5017118;28;20026;-87
2021/12/07 06:58:39;;;;;;;9.20;2.03;;;;;;;;;;5016766;28;20033;-86
2021/12/07 07:01:07;;;;;;;4.53;2.05;;;;;;;;;;5031364;28;20025;-85
2021/12/07 07:03:33;;;;;;;10.27;2.22;;;;;;;;;;5017436;28;20024;-87
2021/12/07 07:06:00;;;;;;;6.00;1.98;;;;;;;;;;5024575;28;20399;-87
2021/12/07 07:08:25;;;;;;;4.10;1.80;;;;;;;;;;5033432;28;20488;-87
2021/12/07 07:10:51;;;;;;;4.30;1.23;;;;;;;;;;5018033;28;20545;-89
2021/12/07 07:13:16;;;;;;;8.10;2.10;;;;;;;;;;5017969;28;20096;-88
2021/12/07 07:15:41;;;;;;;9.82;1.88;;;;;;;;;;5018471;28;20049;-88
2021/12/07 07:18:07;;;;;;;9.07;2.78;;;;;;;;;;5016683;28;20534;-88
2021/12/07 07:20:32;;;;;;;4.88;1.73;;;;;;;;;;5016723;28;20430;-85
2021/12/07 07:22:58;;;;;;;5.57;1.67;;;;;;;;;;5016976;28;20022;-88
2021/12/07 07:25:23;;;;;;;6.40;1.85;;;;;;;;;;5032955;28;20443;-86
2021/12/07 07:27:49;;;;;;;5.90;1.92;;;;;;;;;;5017123;28;20036;-88
2021/12/07 07:30:17;;;;;;;7.07;2.13;;;;;;;;;;5039484;28;20026;-85
2021/12/07 07:32:43;;;;;;;7.03;2.40;;;;;;;;;;5026892;28;20112;-83
2021/12/07 07:35:09;;;;;;;6.28;2.10;;;;;;;;;;5027379;28;20029;-88
2021/12/07 07:37:35;;;;;;;10.30;2.72;;;;;;;;;;5030959;28;20025;-86
2021/12/07 07:40:03;;;;;;;5.50;2.10;;;;;;;;;;5022786;28;20075;-86
2021/12/07 07:42:28;;;;;;;5.78;1.98;;;;;;;;;;5010077;28;20390;-87
2021/12/07 07:44:53;;;;;;;7.35;2.30;;;;;;;;;;5016264;28;20044;-86
2021/12/07 07:47:19;;;;;;;4.78;1.80;;;;;;;;;;5021648;28;20491;-85
2021/12/07 07:49:44;;;;;;;6.07;1.90;;;;;;;;;;5035314;28;20052;-86
2021/12/07 07:52:10;;;;;;;5.97;2.28;;;;;;;;;;5036385;28;20026;-86
2021/12/07 07:54:35;;;;;;;6.40;1.85;;;;;;;;;;5018596;28;20048;-86
2021/12/07 07:57:02;;;;;;;8.00;1.90;;;;;;;;;;5016795;28;20046;-84
2021/12/07 07:59:27;;;;;;;6.13;2.03;;;;;;;;;;5015639;28;20064;-85
2021/12/07 08:01:53;;;;;;;6.72;2.05;;;;;;;;;;5017724;28;20026;-85
2021/12/07 08:04:18;;;;;;;8.60;1.85;;;;;;;;;;5017131;28;20072;-85
2021/12/07 08:14:34;;;;;;;7.25;2.42;;;;;;;;;;5019871;28;20050;-86
2021/12/07 08:17:18;;;;;;;4.00;1.85;;;;;;;;;;5006294;28;20071;-87
2021/12/07 08:20:38;;;;;;;5.20;1.73;;;;;;;;;;5025085;28;20148;-86
2021/12/07 08:24:05;;;;;;;5.15;2.15;;;;;;;;;;5020370;28;20026;-86
2021/12/07 10:08:17;;;;;;;1.83;1.40;;;;;;;;;;5054103;23;20088;-86
2021/12/07 10:10:46;;;;;;;8.43;2.33;;;;;;;;;;5032077;28;20053;-87
2021/12/07 10:13:14;;;;;;;3.15;1.73;;;;;;;;;;5032327;28;20116;-87
2021/12/07 10:15:41;;;;;;;6.90;2.25;;;;;;;;;;5032090;28;20018;-87
2021/12/07 10:18:12;;;;;;;3.80;1.88;;;;;;;;;;5034181;28;20051;-88
2021/12/07 10:20:42;;;;;;;9.52;2.25;;;;;;;;;;5032682;28;20025;-87
2021/12/07 10:23:14;;;;;;;1.23;1.20;;;;;;;;;;5035419;28;20029;-87
2021/12/07 10:25:47;;;;;;;8.52;2.22;;;;;;;;;;5036962;28;20070;-86
2021/12/07 10:28:35;;;;;;;8.88;2.80;;;;;;;;;;5055713;28;20043;-87
2021/12/07 10:31:06;;;;;;;3.95;1.45;;;;;;;;;;5045921;28;20038;-87
2021/12/07 10:33:41;;;;;;;6.05;2.92;;;;;;;;;;5037558;28;20040;-86
2021/12/07 10:36:09;;;;;;;6.65;3.08;;;;;;;;;;5037917;28;20061;-87
2021/12/07 10:38:35;;;;;;;10.30;2.20;;;;;;;;;;5041597;28;20030;-88
2021/12/07 10:41:04;;;;;;;7.13;1.95;;;;;;;;;;5035732;28;20033;-87
2021/12/07 10:43:52;;;;;;;7.07;1.73;;;;;;;;;;5036469;28;20096;-87
2021/12/07 10:46:37;;;;;;;6.18;2.00;;;;;;;;;;5045193;28;20049;-86
2021/12/07 10:49:20;;;;;;;4.13;1.55;;;;;;;;;;5035595;28;20619;-86
2021/12/07 10:52:05;;;;;;;7.35;1.70;;;;;;;;;;5035967;28;20487;-86
2021/12/07 10:54:35;;;;;;;8.13;2.08;;;;;;;;;;5034968;28;20089;-85
2021/12/07 10:57:03;;;;;;;7.05;1.95;;;;;;;;;;5036866;28;20026;-85
2021/12/07 10:59:30;;;;;;;9.13;2.30;;;;;;;;;;5035743;28;20037;-85
2021/12/07 11:01:55;;;;;;;7.38;2.53;;;;;;;;;;5035435;28;20029;-85
2021/12/07 11:04:31;;;;;;;8.00;2.60;;;;;;;;;;5036516;28;20403;-85
2021/12/07 11:07:04;;;;;;;7.28;2.42;;;;;;;;;;5037222;28;20034;-85
2021/12/07 11:09:36;;;;;;;6.70;1.95;;;;;;;;;;5037730;28;20051;-87
2021/12/07 11:12:07;;;;;;;5.20;1.35;;;;;;;;;;5038391;28;20476;-86
2021/12/07 11:15:11;;;;;;;6.10;2.20;;;;;;;;;;5046297;28;20032;-86
2021/12/07 11:17:36;;;;;;;6.55;1.63;;;;;;;;;;5035974;28;20117;-86
2021/12/07 11:20:08;;;;;;;1.30;0.95;;;;;;;;;;5038101;28;20056;-88
2021/12/07 11:22:42;;;;;;;6.07;1.63;;;;;;;;;;5020752;28;20047;-86
2021/12/07 11:25:09;;;;;;;2.60;1.30;;;;;;;;;;5038582;28;20037;-85
2021/12/07 11:30:31;;;;;;;5.45;1.60;;;;;;;;;;5033597;28;20116;-85
2021/12/07 11:32:59;;;;;;;2.97;1.40;;;;;;;;;;5037004;28;20460;-86
2021/12/07 11:35:35;;;;;;;7.15;1.58;;;;;;;;;;5037969;28;20029;-86
2021/12/07 11:38:05;;;;;;;1.85;1.17;;;;;;;;;;5030972;28;20057;-85
2021/12/07 11:40:35;;;;;;;2.17;1.55;;;;;;;;;;5036923;28;20054;-85
2021/12/07 11:43:01;;;;;;;5.70;2.30;;;;;;;;;;5036645;28;20021;-84
2021/12/07 11:45:33;;;;;;;4.47;1.80;;;;;;;;;;5037655;28;20033;-85
2021/12/07 11:48:05;;;;;;;7.65;1.65;;;;;;;;;;5037614;28;20407;-87
2021/12/07 11:50:38;;;;;;;7.10;2.40;;;;;;;;;;5035912;28;20048;-86
2021/12/07 11:53:19;;;;;;;29.42;11.93;;;;;;;;;;5042099;28;20018;-86
2021/12/07 11:55:48;;;;;;;5.88;2.83;;;;;;;;;;5034924;28;20068;-86
2021/12/07 11:58:14;;;;;;;3.03;0.95;;;;;;;;;;5035269;28;20040;-86
2021/12/07 12:00:47;;;;;;;5.15;1.60;;;;;;;;;;5037313;28;20037;-86
2021/12/07 12:03:16;;;;;;;5.88;1.95;;;;;;;;;;5038168;28;20018;-85
2021/12/07 12:05:45;;;;;;;8.63;1.73;;;;;;;;;;5038626;28;20466;-84
2021/12/07 12:08:13;;;;;;;5.78;2.10;;;;;;;;;;5057671;28;20025;-87
2021/12/07 12:10:47;;;;;;;5.30;1.98;;;;;;;;;;5063902;28;20024;-85
2021/12/07 12:13:46;;;;;;;4.18;1.98;;;;;;;;;;5073486;28;20012;-86
2021/12/07 12:16:25;;;;;;;4.88;1.40;;;;;;;;;;5056102;28;20032;-85
2021/12/07 12:19:30;;;;;;;3.33;1.10;;;;;;;;;;5045966;28;20031;-85
2021/12/07 12:22:00;;;;;;;4.22;1.08;;;;;;;;;;5019959;28;20061;-85
2021/12/07 12:24:48;;;;;;;3.92;1.45;;;;;;;;;;5036604;28;20040;-85
2021/12/07 12:27:19;;;;;;;6.07;1.30;;;;;;;;;;5036846;28;20480;-85
2021/12/07 12:29:48;;;;;;;3.85;1.05;;;;;;;;;;5032747;28;20530;-85
2021/12/07 12:32:13;;;;;;;6.20;1.50;;;;;;;;;;5036000;28;20383;-85
2021/12/07 12:34:48;;;;;;;5.88;1.20;;;;;;;;;;5035918;28;20543;-85
2021/12/07 12:37:19;;;;;;;5.03;2.15;;;;;;;;;;5019531;28;20021;-85
2021/12/07 12:39:58;;;;;;;6.35;2.72;;;;;;;;;;5034896;28;20028;-85
2021/12/07 12:42:24;;;;;;;6.60;1.80;;;;;;;;;;5036700;28;20029;-85
2021/12/07 12:44:57;;;;;;;3.70;1.30;;;;;;;;;;5034075;28;20029;-86
2021/12/07 12:47:26;;;;;;;4.55;1.25;;;;;;;;;;5033732;28;20021;-85
2021/12/07 12:49:51;;;;;;;2.40;1.15;;;;;;;;;;5035588;28;20053;-86
2021/12/07 12:52:38;;;;;;;2.50;1.10;;;;;;;;;;5032287;28;20546;-84
2021/12/07 12:55:04;;;;;;;3.75;1.23;;;;;;;;;;5033965;28;20021;-85
2021/12/07 12:57:29;;;;;;;3.47;1.08;;;;;;;;;;5035884;28;20443;-85
2021/12/07 12:59:54;;;;;;;7.97;1.67;;;;;;;;;;5032896;28;20026;-85
2021/12/07 13:02:20;;;;;;;1.85;0.75;;;;;;;;;;5034655;28;20014;-86
2021/12/07 13:05:02;;;;;;;4.95;1.25;;;;;;;;;;5035018;28;20028;-85
2021/12/07 13:07:27;;;;;;;7.03;1.55;;;;;;;;;;5037056;28;20112;-84
2021/12/07 13:09:59;;;;;;;4.72;1.30;;;;;;;;;;5035910;28;20071;-85
2021/12/07 13:12:34;;;;;;;1.85;1.10;;;;;;;;;;5036401;28;20081;-84
2021/12/07 13:15:11;;;;;;;3.50;0.82;;;;;;;;;;5039398;28;20026;-85
2021/12/07 13:17:45;;;;;;;3.65;1.42;;;;;;;;;;5046469;28;20403;-86
2021/12/07 13:20:22;;;;;;;3.38;1.00;;;;;;;;;;5041487;28;20022;-85
2021/12/07 13:23:00;;;;;;;7.28;1.33;;;;;;;;;;5045748;28;20044;-85
2021/12/07 13:25:38;;;;;;;5.10;1.27;;;;;;;;;;5040208;28;20411;-84
2021/12/07 13:28:11;;;;;;;4.32;1.00;;;;;;;;;;5041034;28;20025;-85
2021/12/07 13:30:46;;;;;;;2.70;0.98;;;;;;;;;;5038410;28;20018;-84
2021/12/07 13:33:13;;;;;;;3.67;1.10;;;;;;;;;;5040078;28;20044;-84
2021/12/07 13:35:38;;;;;;;5.78;1.30;;;;;;;;;;5039578;28;20036;-85
2021/12/07 13:38:21;;;;;;;5.10;1.10;;;;;;;;;;5040484;28;20025;-85
2021/12/07 13:40:49;;;;;;;5.82;1.40;;;;;;;;;;5037637;28;20048;-83
2021/12/07 13:43:36;;;;;;;2.65;1.20;;;;;;;;;;5038286;28;20025;-86
2021/12/07 13:46:23;;;;;;;4.05;1.13;;;;;;;;;;5038372;28;20026;-85
2021/12/07 13:48:53;;;;;;;4.25;1.48;;;;;;;;;;5035022;28;20032;-85
2021/12/07 13:51:21;;;;;;;3.33;1.45;;;;;;;;;;5039207;28;20179;-85
2021/12/07 13:53:47;;;;;;;5.15;1.20;;;;;;;;;;5045263;28;20017;-83
2021/12/07 13:56:13;;;;;;;3.10;1.50;;;;;;;;;;5031553;28;20532;-84
2021/12/07 13:58:47;;;;;;;3.80;1.40;;;;;;;;;;5043766;28;20060;-83
2021/12/07 14:01:13;;;;;;;6.00;1.25;;;;;;;;;;5053052;28;20028;-84
2021/12/07 14:03:43;;;;;;;3.83;1.30;;;;;;;;;;5055679;28;20048;-83
2021/12/07 14:06:08;;;;;;;3.17;1.30;;;;;;;;;;5046685;28;20079;-83
2021/12/07 14:08:34;;;;;;;4.70;1.23;;;;;;;;;;5041023;28;20029;-84
2021/12/07 14:10:59;;;;;;;3.33;1.30;;;;;;;;;;5039777;28;20025;-83
2021/12/07 14:13:25;;;;;;;5.38;1.30;;;;;;;;;;5043815;28;20017;-84
2021/12/07 14:15:50;;;;;;;3.30;1.38;;;;;;;;;;5051914;28;20059;-83
2021/12/07 14:18:25;;;;;;;1.55;1.15;;;;;;;;;;5041537;28;20283;-83
2021/12/07 14:20:58;;;;;;;2.17;1.33;;;;;;;;;;5041278;28;20022;-83
2021/12/07 14:23:23;;;;;;;4.20;1.60;;;;;;;;;;5041800;28;20032;-83
2021/12/07 14:25:49;;;;;;;3.20;1.10;;;;;;;;;;5042575;28;20104;-81
2021/12/07 14:28:42;;;;;;;3.83;1.27;;;;;;;;;;5041882;28;20041;-86
2021/12/07 14:31:22;;;;;;;2.58;1.10;;;;;;;;;;5043531;28;20072;-85
2021/12/07 14:34:03;;;;;;;3.45;1.35;;;;;;;;;;5041109;28;20124;-85
2021/12/07 14:36:33;;;;;;;5.63;1.60;;;;;;;;;;5043937;28;20025;-83
2021/12/07 14:39:06;;;;;;;4.35;1.27;;;;;;;;;;5039261;28;20495;-81
2021/12/07 14:41:33;;;;;;;4.20;1.23;;;;;;;;;;5041386;28;20041;-83
2021/12/07 14:43:58;;;;;;;5.68;1.30;;;;;;;;;;5033888;28;20040;-85
2021/12/07 14:46:26;;;;;;;7.40;1.50;;;;;;;;;;5039570;28;20084;-85
2021/12/07 14:48:53;;;;;;;6.15;1.30;;;;;;;;;;5047267;28;20539;-83
2021/12/07 14:51:20;;;;;;;6.15;1.63;;;;;;;;;;5046125;28;20040;-84
2021/12/07 14:53:52;;;;;;;3.30;1.38;;;;;;;;;;5042145;28;20028;-84
2021/12/07 14:56:19;;;;;;;3.10;1.48;;;;;;;;;;5042069;28;20029;-83
2021/12/07 14:58:47;;;;;;;7.45;1.80;;;;;;;;;;5043472;28;20041;-84
2021/12/07 15:01:25;;;;;;;5.10;1.80;;;;;;;;;;5056145;28;20043;-84
2021/12/07 15:03:52;;;;;;;6.88;1.50;;;;;;;;;;5043441;28;20033;-84
2021/12/07 15:06:19;;;;;;;6.03;1.85;;;;;;;;;;5047170;28;20032;-84
2021/12/07 15:08:46;;;;;;;5.25;1.63;;;;;;;;;;5042227;28;20060;-83
2021/12/07 15:11:12;;;;;;;4.30;1.38;;;;;;;;;;5041949;28;20032;-83
2021/12/07 15:13:39;;;;;;;8.30;1.60;;;;;;;;;;5041679;28;20025;-83
2021/12/07 15:16:07;;;;;;;4.78;1.83;;;;;;;;;;5040552;28;20029;-85
2021/12/07 15:18:39;;;;;;;3.45;1.80;;;;;;;;;;5047778;28;20422;-84
2021/12/07 15:21:05;;;;;;;5.70;2.10;;;;;;;;;;5041699;28;20029;-84
2021/12/07 15:23:31;;;;;;;4.50;1.75;;;;;;;;;;5044959;28;20034;-84
2021/12/07 15:25:57;;;;;;;3.08;1.98;;;;;;;;;;5045617;28;20022;-85
2021/12/07 15:28:23;;;;;;;3.80;1.98;;;;;;;;;;5045845;28;20156;-84
2021/12/07 15:30:50;;;;;;;7.97;2.83;;;;;;;;;;5047779;28;20025;-84
2021/12/07 15:33:16;;;;;;;4.57;1.90;;;;;;;;;;5044849;28;20129;-85
2021/12/07 15:35:44;;;;;;;8.60;2.30;;;;;;;;;;5047320;28;20036;-83
2021/12/07 15:38:20;;;;;;;5.30;2.25;;;;;;;;;;5053366;28;20041;-83
2021/12/07 15:40:46;;;;;;;5.78;2.20;;;;;;;;;;5047055;28;20030;-83
2021/12/07 15:43:13;;;;;;;2.75;2.03;;;;;;;;;;5043402;28;20018;-83
2021/12/07 15:45:39;;;;;;;5.60;2.47;;;;;;;;;;5043116;28;20027;-83
2021/12/07 15:48:06;;;;;;;5.47;2.00;;;;;;;;;;5046726;28;20495;-84
2021/12/07 15:50:33;;;;;;;6.93;2.55;;;;;;;;;;5045558;28;20048;-84
2021/12/07 15:53:10;;;;;;;7.53;2.67;;;;;;;;;;5055533;28;20025;-83
2021/12/07 15:55:37;;;;;;;16.48;3.05;;;;;;;;;;5056575;28;20021;-83
2021/12/07 15:58:23;;;;;;;8.90;2.50;;;;;;;;;;5056120;28;20029;-83
2021/12/07 16:00:49;;;;;;;7.35;3.10;;;;;;;;;;5053356;28;20037;-83
2021/12/07 16:03:21;;;;;;;12.18;3.95;;;;;;;;;;5061371;28;20017;-82
2021/12/07 16:05:54;;;;;;;8.35;3.22;;;;;;;;;;5063100;28;20029;-82
2021/12/07 16:08:28;;;;;;;9.90;4.90;;;;;;;;;;5062399;28;20068;-82
2021/12/07 16:10:55;;;;;;;7.63;3.63;;;;;;;;;;5064073;28;20498;-82
2021/12/07 16:13:29;;;;;;;10.43;4.40;;;;;;;;;;5059803;28;20013;-83
2021/12/07 16:15:57;;;;;;;8.68;3.97;;;;;;;;;;5060831;28;20061;-81
2021/12/07 16:18:25;;;;;;;13.30;3.97;;;;;;;;;;5061354;28;20085;-82
2021/12/07 16:20:54;;;;;;;6.20;3.40;;;;;;;;;;5064467;28;20025;-83
2021/12/07 16:23:20;;;;;;;5.80;2.70;;;;;;;;;;5068990;28;20033;-83
2021/12/07 16:25:47;;;;;;;5.45;3.15;;;;;;;;;;5062335;28;20028;-83
2021/12/07 16:28:13;;;;;;;9.95;3.05;;;;;;;;;;5053332;28;20167;-84
2021/12/07 16:30:38;;;;;;;6.47;3.65;;;;;;;;;;5056601;28;20076;-84
2021/12/07 16:33:05;;;;;;;9.65;3.75;;;;;;;;;;5040840;28;20056;-83
2021/12/07 16:35:31;;;;;;;13.05;4.32;;;;;;;;;;5043241;28;20032;-84
2021/12/07 16:37:58;;;;;;;5.93;3.25;;;;;;;;;;5042636;28;20025;-84
2021/12/07 16:40:24;;;;;;;8.93;3.63;;;;;;;;;;5040347;28;20056;-82
2021/12/07 16:42:51;;;;;;;6.90;2.92;;;;;;;;;;5027315;28;20024;-84
2021/12/07 16:45:20;;;;;;;7.25;2.58;;;;;;;;;;5039975;28;20051;-83
2021/12/07 16:47:46;;;;;;;5.07;2.97;;;;;;;;;;5036763;28;20021;-83
2021/12/07 16:50:13;;;;;;;4.95;2.25;;;;;;;;;;5038143;28;20025;-83
2021/12/07 16:52:39;;;;;;;7.25;3.25;;;;;;;;;;5035225;28;20531;-81
2021/12/07 16:55:07;;;;;;;10.00;3.92;;;;;;;;;;5015911;28;20086;-81
2021/12/07 16:57:33;;;;;;;4.57;3.00;;;;;;;;;;5035770;28;20037;-82
2021/12/07 16:59:58;;;;;;;12.55;2.95;;;;;;;;;;5037604;28;20021;-82
2021/12/07 17:02:24;;;;;;;7.57;2.70;;;;;;;;;;5036493;28;20034;-82
2021/12/07 17:04:49;;;;;;;4.65;2.72;;;;;;;;;;5034942;28;20021;-82
2021/12/07 17:07:15;;;;;;;14.10;3.78;;;;;;;;;;5040518;28;20055;-81
2021/12/07 17:09:40;;;;;;;10.82;3.90;;;;;;;;;;5037613;28;20025;-82
2021/12/07 17:12:06;;;;;;;11.32;3.60;;;;;;;;;;5037468;28;20506;-82
2021/12/07 17:14:32;;;;;;;6.95;3.50;;;;;;;;;;5036894;28;20021;-82
2021/12/07 17:16:57;;;;;;;12.13;3.72;;;;;;;;;;5036499;28;20491;-82
2021/12/07 17:19:23;;;;;;;7.10;3.20;;;;;;;;;;5042711;28;20132;-82
2021/12/07 17:21:49;;;;;;;8.25;3.78;;;;;;;;;;5036632;28;20142;-82
2021/12/07 17:24:18;;;;;;;12.90;3.60;;;;;;;;;;5036047;28;20524;-79
2021/12/07 17:26:43;;;;;;;12.63;3.38;;;;;;;;;;5051758;28;20021;-82
2021/12/07 17:29:09;;;;;;;11.93;3.92;;;;;;;;;;5050308;28;20025;-80
2021/12/07 17:31:34;;;;;;;5.50;3.38;;;;;;;;;;5040997;28;20029;-82
2021/12/07 17:34:00;;;;;;;8.60;3.28;;;;;;;;;;5037230;28;20633;-82
2021/12/07 17:36:25;;;;;;;9.80;3.55;;;;;;;;;;5035249;28;20018;-82
2021/12/07 17:38:53;;;;;;;8.52;3.58;;;;;;;;;;5033558;28;20025;-81
2021/12/07 17:41:19;;;;;;;8.95;3.58;;;;;;;;;;5045129;28;20047;-81
2021/12/07 17:43:49;;;;;;;10.55;3.53;;;;;;;;;;5040431;28;20025;-82
2021/12/07 17:46:16;;;;;;;14.90;3.10;;;;;;;;;;5040103;28;20089;-82
2021/12/07 17:48:41;;;;;;;10.52;3.38;;;;;;;;;;5048226;28;20035;-82
2021/12/07 17:51:07;;;;;;;8.27;3.30;;;;;;;;;;5047114;28;20120;-82
2021/12/07 17:53:32;;;;;;;7.47;3.20;;;;;;;;;;5049021;28;20035;-81
2021/12/07 17:55:58;;;;;;;15.65;4.40;;;;;;;;;;5047452;28;20032;-82
2021/12/07 17:58:23;;;;;;;9.63;3.35;;;;;;;;;;5049690;28;20099;-82
2021/12/07 18:00:50;;;;;;;7.53;3.58;;;;;;;;;;5048525;28;20044;-82
2021/12/07 18:03:21;;;;;;;10.00;3.60;;;;;;;;;;5046082;28;20022;-87
2021/12/07 18:05:47;;;;;;;5.72;3.17;;;;;;;;;;5050849;28;20089;-86
2021/12/07 18:08:14;;;;;;;10.23;3.00;;;;;;;;;;5046609;28;20029;-87
2021/12/07 18:10:40;;;;;;;6.10;2.60;;;;;;;;;;5051257;28;20021;-86
2021/12/07 18:13:05;;;;;;;8.32;2.80;;;;;;;;;;5048434;28;20047;-86
2021/12/07 18:15:32;;;;;;;9.15;3.25;;;;;;;;;;5050739;28;20028;-86
2021/12/07 18:17:59;;;;;;;6.72;3.15;;;;;;;;;;5043539;28;20467;-86
2021/12/07 18:20:30;;;;;;;9.85;2.80;;;;;;;;;;5038075;28;20032;-87
2021/12/07 18:22:56;;;;;;;8.45;3.35;;;;;;;;;;5039676;28;20026;-86